Etusivu
METAR-TAF:

METAR-TAF

Lentoasemat :

Lampang, Thaimaa

Leveyspiiri: 18-17N, Pituuspiiri: 099-31E, korkeus merenpinnasta: 241 m

Tämänhetkinen sää

Tämä raportti tehtiin 56 minuuttia sitten, kello 07.00 UTC
Tuuli 7 kn etelästä/lounaasta, vaihdellen etelän/kaakon ja lännen välillä
Lämpötila 39°C
Kosteus 38%
Ilmanpaine 1007 hPa
Näkyvyys 10 km tai enemmän
Hajanaisia pilviä 2500 ft:n korkeudessa

METAR: VTCL 260700Z 21007KT 150V260 9999 SCT025 39/22 Q1007 NOSIG

Aika: 14:56 (07:56 UTC)

Sääennuste

Tämä raportti tehtiin 2 tuntia ja 56 minuuttia sitten, kello 05.00 UTC
Ennuste voimassa 26. päivästä klo 06 UTC - 27. päivään klo 06 UTC
Tuuli 5 kn etelästä/lounaasta
Näkyvyys 10 km tai enemmän
Muutamia pilviä 2500 ft:n korkeudessa

TAF: VTCL 260500Z 2606/2706 20005KT 9999 FEW025

Säähavainnot ja -ennusteet yli 4000 lentoasemalta (METAR- ja TAF-raportit).

Käytössä olevat sääasemat on merkitty karttaan keltaisilla ja punaisilla pisteillä.

Aseta hiiri pisteen päälle nähdäksesi sääaseman nimen.

Klikkaa sitten nähdäksesi säähavainnot ja -ennusteet.

Kartan vaihtaminen: klikkaa mustalla rastilla varustettuja vihreitä pisteitä, niin voit zoomata sisään; viivalla varustettua vihreää pistettä, niin voit zoomata ulos tai vihreitä nuolia, niin pääset viereisille kartoille.


METAR-TAF: